Time;durP1;ratioP1;P1;durP2;ratioP2;P2;SDS_P1;SDS_P2;PMS_P1;PMS_P2;Temp;Humidity;BMP_temperature;BMP_pressure;BME280_temperature;BME280_humidity;BME280_pressure;Samples;Min_cycle;Max_cycle;Signal;HPM_P1;HPM_P2
2022/02/12 00:01:21;;;;;;;23.77;11.48;;;;;;;;;;5071739;28;20061;-67
2022/02/12 00:03:47;;;;;;;21.05;10.75;;;;;;;;;;5072282;28;20051;-67
2022/02/12 00:06:14;;;;;;;24.98;11.27;;;;;;;;;;5072241;28;20128;-67
2022/02/12 00:08:41;;;;;;;23.08;10.57;;;;;;;;;;5071677;28;20052;-66
2022/02/12 00:11:10;;;;;;;26.33;11.25;;;;;;;;;;5072315;28;20056;-67
2022/02/12 00:13:37;;;;;;;22.42;10.13;;;;;;;;;;5073497;28;20096;-68
2022/02/12 00:16:04;;;;;;;22.70;10.25;;;;;;;;;;5073649;28;20521;-68
2022/02/12 00:18:31;;;;;;;18.08;9.07;;;;;;;;;;5073347;28;20044;-68
2022/02/12 00:20:58;;;;;;;18.48;10.25;;;;;;;;;;5073685;28;20049;-68
2022/02/12 00:23:25;;;;;;;19.98;9.95;;;;;;;;;;5073726;28;20044;-68
2022/02/12 00:25:52;;;;;;;18.08;8.75;;;;;;;;;;5073700;28;20060;-68
2022/02/12 00:28:21;;;;;;;20.38;8.30;;;;;;;;;;5073031;28;20110;-68
2022/02/12 00:30:48;;;;;;;18.27;8.45;;;;;;;;;;5073618;28;20098;-68
2022/02/12 00:33:17;;;;;;;16.50;8.13;;;;;;;;;;5073866;28;20103;-68
2022/02/12 00:35:45;;;;;;;18.15;8.57;;;;;;;;;;5073365;28;20102;-68
2022/02/12 00:38:12;;;;;;;15.85;8.48;;;;;;;;;;5073778;28;20052;-67
2022/02/12 00:40:39;;;;;;;21.48;9.07;;;;;;;;;;5073391;28;20045;-68
2022/02/12 00:43:06;;;;;;;16.00;8.48;;;;;;;;;;5073297;28;20059;-68
2022/02/12 00:45:35;;;;;;;17.33;7.85;;;;;;;;;;5072048;28;20131;-69
2022/02/12 00:48:02;;;;;;;18.58;8.40;;;;;;;;;;5073058;28;20116;-68
2022/02/12 00:50:29;;;;;;;18.38;7.75;;;;;;;;;;5072804;28;20055;-68
2022/02/12 00:52:56;;;;;;;15.75;8.50;;;;;;;;;;5072618;28;20055;-68
2022/02/12 00:55:22;;;;;;;20.15;8.10;;;;;;;;;;5072759;28;20049;-68
2022/02/12 00:57:49;;;;;;;16.95;7.70;;;;;;;;;;5072451;28;20044;-68
2022/02/12 01:00:17;;;;;;;19.38;8.10;;;;;;;;;;5072692;28;20059;-68
2022/02/12 01:02:45;;;;;;;20.10;8.55;;;;;;;;;;5072710;28;20051;-67
2022/02/12 01:05:12;;;;;;;17.00;8.32;;;;;;;;;;5083302;28;20046;-68
2022/02/12 01:07:39;;;;;;;19.10;8.35;;;;;;;;;;5086658;28;20048;-68
2022/02/12 01:10:07;;;;;;;18.92;8.07;;;;;;;;;;5079732;28;20413;-68
2022/02/12 01:12:34;;;;;;;17.63;8.00;;;;;;;;;;5080309;28;20044;-67
2022/02/12 01:15:02;;;;;;;18.58;8.85;;;;;;;;;;5082804;28;20409;-68
2022/02/12 01:17:30;;;;;;;17.10;8.13;;;;;;;;;;5080938;28;20083;-68
2022/02/12 01:19:59;;;;;;;17.30;8.85;;;;;;;;;;5083699;28;20098;-68
2022/02/12 01:22:26;;;;;;;18.38;8.05;;;;;;;;;;5092806;28;20048;-67
2022/02/12 01:24:53;;;;;;;17.73;8.48;;;;;;;;;;5092848;28;20409;-68
2022/02/12 01:27:20;;;;;;;16.13;7.72;;;;;;;;;;5092726;28;20508;-68
2022/02/12 01:29:47;;;;;;;16.35;8.18;;;;;;;;;;5092635;28;20052;-69
2022/02/12 01:32:14;;;;;;;18.60;8.45;;;;;;;;;;5092481;28;20048;-69
2022/02/12 01:34:41;;;;;;;17.58;8.10;;;;;;;;;;5092511;28;20405;-68
2022/02/12 01:37:10;;;;;;;17.05;8.25;;;;;;;;;;5092139;28;20052;-69
2022/02/12 01:39:37;;;;;;;17.15;7.95;;;;;;;;;;5092101;28;20416;-67
2022/02/12 01:42:04;;;;;;;18.30;7.50;;;;;;;;;;5092330;28;20052;-68
2022/02/12 01:44:33;;;;;;;19.77;8.52;;;;;;;;;;5092710;28;20048;-68
2022/02/12 01:47:01;;;;;;;15.00;7.35;;;;;;;;;;5092174;28;20417;-69
2022/02/12 01:49:29;;;;;;;15.48;8.25;;;;;;;;;;5092051;28;20044;-68
2022/02/12 01:51:57;;;;;;;16.95;8.35;;;;;;;;;;5092490;28;20052;-68
2022/02/12 01:54:28;;;;;;;16.95;7.65;;;;;;;;;;5092199;28;20043;-68
2022/02/12 01:56:56;;;;;;;16.88;7.18;;;;;;;;;;5092024;28;20054;-68
2022/02/12 01:59:24;;;;;;;13.55;7.32;;;;;;;;;;5092142;28;20103;-68
2022/02/12 02:01:52;;;;;;;14.57;8.30;;;;;;;;;;5092428;28;20051;-68
2022/02/12 02:04:19;;;;;;;20.60;9.10;;;;;;;;;;5092201;28;20047;-68
2022/02/12 02:06:47;;;;;;;21.02;9.00;;;;;;;;;;5091965;28;20534;-68
2022/02/12 02:09:15;;;;;;;26.42;10.43;;;;;;;;;;5091961;28;20052;-68
2022/02/12 02:11:44;;;;;;;16.25;8.43;;;;;;;;;;5092029;28;20044;-68
2022/02/12 02:14:11;;;;;;;23.55;9.85;;;;;;;;;;5092187;28;20048;-69
2022/02/12 02:16:43;;;;;;;21.80;10.13;;;;;;;;;;5092097;28;20059;-68
2022/02/12 02:19:11;;;;;;;17.58;9.43;;;;;;;;;;5092192;28;20052;-67
2022/02/12 02:21:40;;;;;;;20.02;9.68;;;;;;;;;;5092031;28;20056;-68
2022/02/12 02:24:09;;;;;;;19.85;9.70;;;;;;;;;;5092188;28;20590;-67
2022/02/12 02:26:37;;;;;;;24.17;10.02;;;;;;;;;;5091606;28;20069;-68
2022/02/12 02:29:04;;;;;;;28.45;10.23;;;;;;;;;;5091634;28;20501;-69
2022/02/12 02:31:31;;;;;;;21.65;9.80;;;;;;;;;;5091863;28;20493;-67
2022/02/12 02:33:58;;;;;;;21.17;10.80;;;;;;;;;;5092275;28;20052;-70
2022/02/12 02:36:25;;;;;;;19.90;9.70;;;;;;;;;;5092043;28;20084;-67
2022/02/12 02:38:52;;;;;;;19.15;10.00;;;;;;;;;;5091694;28;20458;-68
2022/02/12 02:41:20;;;;;;;18.92;9.65;;;;;;;;;;5091732;28;20054;-67
2022/02/12 02:43:47;;;;;;;16.73;9.18;;;;;;;;;;5091537;28;20414;-68
2022/02/12 02:46:14;;;;;;;20.45;9.48;;;;;;;;;;5091553;28;20169;-68
2022/02/12 02:48:41;;;;;;;25.27;10.20;;;;;;;;;;5091437;28;20072;-69
2022/02/12 02:56:38;;;;;;;20.67;9.40;;;;;;;;;;5091401;28;20182;-68
2022/02/12 02:59:06;;;;;;;20.15;9.88;;;;;;;;;;5091441;28;20048;-68
2022/02/12 03:01:35;;;;;;;20.73;8.95;;;;;;;;;;5091605;28;20091;-67
2022/02/12 03:04:03;;;;;;;18.80;8.27;;;;;;;;;;5091305;28;20052;-67
2022/02/12 03:06:31;;;;;;;18.88;9.70;;;;;;;;;;5091387;28;20052;-69
2022/02/12 03:08:59;;;;;;;21.23;8.98;;;;;;;;;;5093748;28;20055;-68
2022/02/12 03:11:26;;;;;;;22.10;9.07;;;;;;;;;;5094954;28;20052;-68
2022/02/12 03:13:55;;;;;;;18.08;9.05;;;;;;;;;;5095141;28;20485;-67
2022/02/12 03:16:23;;;;;;;19.58;9.10;;;;;;;;;;5095030;28;20052;-67
2022/02/12 03:18:50;;;;;;;18.08;7.97;;;;;;;;;;5094908;28;20055;-68
2022/02/12 03:21:17;;;;;;;17.83;8.65;;;;;;;;;;5094721;28;20059;-67
2022/02/12 03:23:44;;;;;;;16.05;8.02;;;;;;;;;;5095032;28;20048;-68
2022/02/12 03:26:12;;;;;;;17.08;7.97;;;;;;;;;;5094881;28;20051;-68
2022/02/12 03:28:39;;;;;;;17.48;8.43;;;;;;;;;;5094478;28;20048;-68
2022/02/12 03:31:08;;;;;;;16.70;7.80;;;;;;;;;;5094882;28;20047;-67
2022/02/12 03:33:34;;;;;;;14.32;7.88;;;;;;;;;;5094335;28;20047;-67
2022/02/12 03:36:02;;;;;;;14.07;7.53;;;;;;;;;;5094616;28;20424;-67
2022/02/12 03:38:30;;;;;;;14.93;8.13;;;;;;;;;;5094151;28;20058;-67
2022/02/12 03:41:00;;;;;;;15.65;7.78;;;;;;;;;;5094227;28;20044;-67
2022/02/12 03:43:28;;;;;;;18.90;9.30;;;;;;;;;;5094453;28;20501;-67
2022/02/12 03:45:55;;;;;;;14.80;7.70;;;;;;;;;;5094422;28;20051;-67
2022/02/12 03:48:23;;;;;;;15.63;8.10;;;;;;;;;;5093903;28;20044;-67
2022/02/12 03:50:51;;;;;;;19.00;8.82;;;;;;;;;;5094478;28;20044;-67
2022/02/12 03:53:18;;;;;;;18.70;9.00;;;;;;;;;;5093986;28;20047;-67
2022/02/12 03:55:45;;;;;;;17.52;7.97;;;;;;;;;;5094131;28;20044;-67
2022/02/12 03:58:13;;;;;;;17.30;7.72;;;;;;;;;;5093803;28;20044;-67
2022/02/12 04:00:42;;;;;;;17.17;7.85;;;;;;;;;;5094050;28;20412;-69
2022/02/12 04:03:09;;;;;;;18.73;8.30;;;;;;;;;;5094036;28;20051;-69
2022/02/12 04:05:41;;;;;;;15.52;8.20;;;;;;;;;;5094424;28;20050;-68
2022/02/12 04:08:08;;;;;;;14.48;7.35;;;;;;;;;;5093658;28;20048;-68
2022/02/12 04:10:35;;;;;;;16.27;7.60;;;;;;;;;;5093908;28;20048;-69
2022/02/12 04:13:03;;;;;;;16.45;7.97;;;;;;;;;;5094015;28;20048;-68
2022/02/12 04:15:30;;;;;;;15.98;8.02;;;;;;;;;;5094059;28;20050;-68
2022/02/12 04:17:57;;;;;;;14.32;7.47;;;;;;;;;;5094154;28;20052;-68
2022/02/12 04:20:26;;;;;;;18.38;7.85;;;;;;;;;;5094105;28;20059;-68
2022/02/12 04:22:54;;;;;;;15.52;7.45;;;;;;;;;;5093623;28;20048;-67
2022/02/12 04:25:23;;;;;;;14.32;7.53;;;;;;;;;;5093652;28;20044;-67
2022/02/12 04:27:50;;;;;;;15.00;7.60;;;;;;;;;;5093288;28;20048;-68
2022/02/12 04:30:18;;;;;;;18.42;7.50;;;;;;;;;;5093473;28;20067;-68
2022/02/12 04:32:45;;;;;;;15.15;7.82;;;;;;;;;;5093264;28;20059;-68
2022/02/12 04:35:13;;;;;;;15.02;7.25;;;;;;;;;;5093252;28;20051;-68
2022/02/12 04:37:41;;;;;;;14.73;7.30;;;;;;;;;;5093172;28;20048;-67
2022/02/12 04:40:11;;;;;;;15.40;7.50;;;;;;;;;;5093172;28;20050;-68
2022/02/12 04:42:38;;;;;;;17.17;7.90;;;;;;;;;;5093063;28;20054;-67
2022/02/12 04:45:06;;;;;;;16.35;7.45;;;;;;;;;;5093202;28;20052;-68
2022/02/12 04:47:33;;;;;;;15.88;7.30;;;;;;;;;;5093081;28;20059;-68
2022/02/12 04:50:00;;;;;;;12.73;6.68;;;;;;;;;;5093125;28;20123;-68
2022/02/12 04:52:27;;;;;;;15.07;7.85;;;;;;;;;;5092947;28;20493;-68
2022/02/12 04:54:54;;;;;;;16.00;7.25;;;;;;;;;;5092896;28;20493;-68
2022/02/12 04:57:23;;;;;;;14.63;7.45;;;;;;;;;;5092785;28;20185;-68
2022/02/12 04:59:50;;;;;;;15.50;7.45;;;;;;;;;;5093109;28;20044;-68
2022/02/12 05:02:17;;;;;;;17.95;8.10;;;;;;;;;;5092857;28;20394;-68
2022/02/12 05:04:44;;;;;;;16.60;7.70;;;;;;;;;;5092878;28;20059;-68
2022/02/12 05:07:11;;;;;;;17.90;8.10;;;;;;;;;;5092569;28;20058;-68
2022/02/12 05:09:38;;;;;;;16.00;8.13;;;;;;;;;;5092534;28;20052;-68
2022/02/12 05:12:07;;;;;;;14.45;7.97;;;;;;;;;;5093290;28;20132;-68
2022/02/12 05:14:35;;;;;;;17.02;8.02;;;;;;;;;;5092796;28;20062;-67
2022/02/12 05:17:03;;;;;;;17.17;8.27;;;;;;;;;;5092653;28;20136;-68
2022/02/12 05:19:31;;;;;;;15.77;7.93;;;;;;;;;;5092500;28;20052;-68
2022/02/12 05:21:58;;;;;;;19.67;8.52;;;;;;;;;;5092745;28;20056;-68
2022/02/12 05:24:25;;;;;;;16.33;7.57;;;;;;;;;;5092717;28;20056;-68
2022/02/12 05:26:52;;;;;;;12.27;7.25;;;;;;;;;;5092293;28;20056;-68
2022/02/12 05:29:20;;;;;;;15.25;7.18;;;;;;;;;;5092514;28;20098;-68
2022/02/12 05:31:48;;;;;;;19.65;8.07;;;;;;;;;;5092135;28;20052;-69
2022/02/12 05:34:15;;;;;;;14.45;7.60;;;;;;;;;;5092437;28;20048;-68
2022/02/12 05:36:42;;;;;;;18.45;8.45;;;;;;;;;;5092276;28;20048;-68
2022/02/12 05:39:10;;;;;;;18.88;9.70;;;;;;;;;;5092487;28;20048;-68
2022/02/12 05:41:37;;;;;;;24.48;10.32;;;;;;;;;;5092481;28;20052;-68
2022/02/12 05:44:06;;;;;;;15.35;8.43;;;;;;;;;;5092392;28;20048;-67
2022/02/12 05:46:33;;;;;;;16.70;8.23;;;;;;;;;;5092319;28;20109;-68
2022/02/12 05:49:01;;;;;;;15.82;7.78;;;;;;;;;;5092110;28;20047;-68
2022/02/12 05:51:31;;;;;;;17.50;7.60;;;;;;;;;;5092820;28;20046;-67
2022/02/12 05:54:00;;;;;;;14.23;6.90;;;;;;;;;;5092376;28;20155;-68
2022/02/12 05:56:27;;;;;;;14.75;6.95;;;;;;;;;;5092433;28;20553;-68
2022/02/12 05:58:54;;;;;;;12.68;6.95;;;;;;;;;;5092283;28;20527;-68
2022/02/12 06:01:21;;;;;;;12.68;6.25;;;;;;;;;;5092192;28;20050;-69
2022/02/12 06:03:48;;;;;;;14.15;7.10;;;;;;;;;;5092166;28;20052;-68
2022/02/12 06:06:18;;;;;;;16.40;6.90;;;;;;;;;;5092049;28;20052;-68
2022/02/12 06:08:45;;;;;;;12.77;6.32;;;;;;;;;;5091895;28;20052;-67
2022/02/12 06:11:15;;;;;;;11.68;6.60;;;;;;;;;;5092265;28;20135;-67
2022/02/12 06:13:43;;;;;;;12.55;6.18;;;;;;;;;;5092451;28;20489;-68
2022/02/12 06:16:11;;;;;;;12.95;6.10;;;;;;;;;;5092318;28;20064;-68
2022/02/12 06:18:38;;;;;;;13.32;6.15;;;;;;;;;;5092287;28;20533;-68
2022/02/12 06:21:06;;;;;;;10.95;6.07;;;;;;;;;;5092758;28;20048;-67
2022/02/12 06:23:37;;;;;;;11.80;5.70;;;;;;;;;;5092847;28;20072;-67
2022/02/12 06:26:04;;;;;;;12.53;5.97;;;;;;;;;;5092808;28;20054;-68
2022/02/12 06:28:32;;;;;;;11.48;6.07;;;;;;;;;;5092169;28;20131;-69
2022/02/12 06:31:01;;;;;;;11.23;6.53;;;;;;;;;;5092002;28;20169;-69
2022/02/12 06:33:28;;;;;;;14.55;6.75;;;;;;;;;;5092489;28;20055;-68
2022/02/12 06:35:55;;;;;;;12.13;6.18;;;;;;;;;;5092691;28;20044;-67
2022/02/12 06:38:22;;;;;;;15.07;6.03;;;;;;;;;;5092589;28;20052;-67
2022/02/12 06:40:50;;;;;;;10.05;5.93;;;;;;;;;;5093775;28;20398;-66
2022/02/12 06:43:17;;;;;;;14.77;6.22;;;;;;;;;;5093758;28;20044;-67
2022/02/12 06:45:44;;;;;;;15.95;6.22;;;;;;;;;;5096930;28;20481;-67
2022/02/12 06:48:11;;;;;;;13.25;6.40;;;;;;;;;;5095960;28;20052;-69
2022/02/12 06:50:38;;;;;;;14.57;6.05;;;;;;;;;;5096252;28;20409;-68
2022/02/12 06:53:05;;;;;;;11.95;5.82;;;;;;;;;;5096089;28;20054;-68
2022/02/12 06:55:33;;;;;;;13.55;6.10;;;;;;;;;;5095903;28;20048;-69
2022/02/12 06:58:01;;;;;;;11.52;6.00;;;;;;;;;;5095332;28;20545;-68
2022/02/12 07:00:30;;;;;;;12.45;5.40;;;;;;;;;;5095588;28;20428;-68
2022/02/12 07:02:57;;;;;;;11.85;5.85;;;;;;;;;;5095516;28;20052;-68
2022/02/12 07:05:24;;;;;;;11.88;5.80;;;;;;;;;;5095428;28;20058;-67
2022/02/12 07:07:52;;;;;;;14.77;5.70;;;;;;;;;;5095066;28;20051;-68
2022/02/12 07:10:21;;;;;;;14.02;5.97;;;;;;;;;;5095223;28;20051;-69
2022/02/12 07:12:48;;;;;;;12.13;5.22;;;;;;;;;;5095218;28;20052;-69
2022/02/12 07:15:16;;;;;;;11.75;5.70;;;;;;;;;;5095147;28;20054;-68
2022/02/12 07:17:43;;;;;;;14.63;5.32;;;;;;;;;;5094664;28;20211;-69
2022/02/12 07:20:12;;;;;;;20.63;9.68;;;;;;;;;;5095204;28;20047;-69
2022/02/12 07:22:41;;;;;;;11.90;5.90;;;;;;;;;;5095075;28;20052;-69
2022/02/12 07:25:09;;;;;;;13.98;6.35;;;;;;;;;;5094733;28;20052;-68
2022/02/12 07:27:38;;;;;;;10.25;5.65;;;;;;;;;;5094731;28;20101;-69
2022/02/12 07:30:08;;;;;;;10.65;6.15;;;;;;;;;;5095338;28;20044;-70
2022/02/12 07:32:37;;;;;;;13.73;6.15;;;;;;;;;;5094578;28;20051;-69
2022/02/12 07:35:05;;;;;;;15.77;6.45;;;;;;;;;;5094530;28;20055;-68
2022/02/12 07:37:32;;;;;;;12.30;6.70;;;;;;;;;;5094562;28;20063;-67
2022/02/12 07:40:00;;;;;;;12.38;6.40;;;;;;;;;;5094523;28;20143;-69
2022/02/12 07:42:27;;;;;;;12.63;6.30;;;;;;;;;;5094717;28;20134;-68
2022/02/12 07:44:54;;;;;;;12.60;6.65;;;;;;;;;;5094605;28;20055;-68
2022/02/12 07:47:21;;;;;;;12.60;6.43;;;;;;;;;;5094153;28;20048;-69
2022/02/12 07:49:49;;;;;;;11.65;6.43;;;;;;;;;;5094676;28;20440;-68
2022/02/12 07:52:16;;;;;;;12.68;7.25;;;;;;;;;;5094390;28;20398;-69
2022/02/12 07:54:43;;;;;;;15.10;7.07;;;;;;;;;;5093730;28;20052;-69
2022/02/12 07:57:10;;;;;;;13.65;6.88;;;;;;;;;;5094151;28;20048;-69
2022/02/12 07:59:37;;;;;;;14.82;6.95;;;;;;;;;;5094046;28;20048;-69
2022/02/12 08:02:04;;;;;;;14.75;7.70;;;;;;;;;;5093941;28;20047;-68
2022/02/12 08:04:32;;;;;;;13.18;7.13;;;;;;;;;;5093723;28;20135;-69
2022/02/12 08:09:46;;;;;;;18.85;7.88;;;;;;;;;;5093729;28;20512;-69
2022/02/12 08:12:14;;;;;;;15.98;7.80;;;;;;;;;;5093823;28;20261;-69
2022/02/12 08:14:46;;;;;;;14.93;8.23;;;;;;;;;;5093679;28;20040;-69
2022/02/12 08:17:15;;;;;;;13.20;7.68;;;;;;;;;;5093547;28;20055;-70
2022/02/12 08:19:42;;;;;;;15.57;7.97;;;;;;;;;;5093781;28;20059;-69
2022/02/12 08:22:11;;;;;;;13.45;7.72;;;;;;;;;;5093979;28;20464;-68
2022/02/12 08:24:39;;;;;;;16.00;8.70;;;;;;;;;;5093402;28;20394;-68
2022/02/12 08:27:06;;;;;;;16.77;7.65;;;;;;;;;;5093458;28;20044;-68
2022/02/12 08:29:34;;;;;;;12.95;7.20;;;;;;;;;;5093464;28;20054;-68
2022/02/12 08:32:01;;;;;;;20.58;8.45;;;;;;;;;;5093615;28;20134;-68
2022/02/12 08:34:29;;;;;;;16.02;7.93;;;;;;;;;;5093517;28;20050;-69
2022/02/12 08:36:57;;;;;;;13.60;7.70;;;;;;;;;;5093255;28;20416;-69
2022/02/12 08:39:26;;;;;;;14.68;8.18;;;;;;;;;;5093515;28;20412;-69
2022/02/12 08:41:53;;;;;;;14.95;7.95;;;;;;;;;;5093107;28;20048;-69
2022/02/12 08:44:21;;;;;;;15.50;7.75;;;;;;;;;;5093830;28;20473;-69
2022/02/12 08:46:48;;;;;;;14.85;7.53;;;;;;;;;;5093193;28;20460;-69
2022/02/12 08:49:15;;;;;;;15.98;8.63;;;;;;;;;;5092963;28;20040;-69
2022/02/12 08:51:43;;;;;;;16.90;8.90;;;;;;;;;;5093039;28;20048;-68
2022/02/12 08:54:12;;;;;;;14.15;7.57;;;;;;;;;;5093101;28;20131;-68
2022/02/12 08:56:42;;;;;;;16.17;7.78;;;;;;;;;;5092664;28;20047;-70
2022/02/12 08:59:09;;;;;;;14.73;7.63;;;;;;;;;;5093151;28;20051;-68
2022/02/12 09:01:37;;;;;;;15.57;7.25;;;;;;;;;;5092973;28;20097;-68
2022/02/12 09:04:06;;;;;;;11.93;6.95;;;;;;;;;;5093249;28;20139;-69
2022/02/12 09:06:33;;;;;;;16.23;7.15;;;;;;;;;;5092117;28;20097;-68
2022/02/12 09:09:02;;;;;;;16.48;7.97;;;;;;;;;;5092888;28;20063;-69
2022/02/12 09:11:29;;;;;;;16.75;8.00;;;;;;;;;;5092770;28;20056;-68
2022/02/12 09:13:58;;;;;;;17.13;8.13;;;;;;;;;;5092598;28;20058;-69
2022/02/12 09:16:26;;;;;;;17.50;8.05;;;;;;;;;;5092703;28;20044;-68
2022/02/12 09:18:53;;;;;;;20.50;8.77;;;;;;;;;;5092521;28;20131;-69
2022/02/12 09:21:21;;;;;;;15.52;8.25;;;;;;;;;;5092739;28;20063;-69
2022/02/12 09:23:48;;;;;;;25.92;10.98;;;;;;;;;;5092597;28;20048;-69
2022/02/12 09:26:15;;;;;;;15.52;7.70;;;;;;;;;;5092389;28;20052;-68
2022/02/12 09:28:43;;;;;;;12.90;6.95;;;;;;;;;;5092158;28;20052;-69
2022/02/12 09:31:11;;;;;;;16.88;7.93;;;;;;;;;;5093100;28;20421;-69
2022/02/12 09:33:38;;;;;;;15.25;8.07;;;;;;;;;;5092987;28;20413;-69
2022/02/12 09:36:06;;;;;;;15.02;7.80;;;;;;;;;;5092390;28;20054;-69
2022/02/12 09:38:33;;;;;;;14.60;7.60;;;;;;;;;;5092470;28;20054;-69
2022/02/12 09:41:00;;;;;;;16.02;7.93;;;;;;;;;;5092761;28;20088;-67
2022/02/12 09:43:29;;;;;;;15.90;8.43;;;;;;;;;;5092725;28;20059;-69
2022/02/12 09:46:43;;;;;;;14.15;8.02;;;;;;;;;;5092379;28;20417;-66
2022/02/12 09:49:10;;;;;;;14.52;7.88;;;;;;;;;;5029684;28;20494;-67
2022/02/12 09:51:41;;;;;;;18.65;8.40;;;;;;;;;;5029919;28;20080;-66
2022/02/12 09:54:09;;;;;;;13.77;7.63;;;;;;;;;;5064589;28;20408;-67
2022/02/12 09:56:36;;;;;;;20.45;8.57;;;;;;;;;;5091816;28;20131;-67
2022/02/12 09:59:04;;;;;;;21.40;8.95;;;;;;;;;;5092012;28;20055;-66
2022/02/12 10:01:31;;;;;;;16.15;7.78;;;;;;;;;;5072334;28;20083;-66
2022/02/12 10:03:59;;;;;;;11.77;6.82;;;;;;;;;;5072047;28;20070;-66
2022/02/12 10:06:41;;;;;;;17.33;7.13;;;;;;;;;;5071958;28;20118;-66
2022/02/12 10:09:08;;;;;;;16.15;7.22;;;;;;;;;;5071514;28;20044;-67
2022/02/12 10:11:44;;;;;;;17.20;7.13;;;;;;;;;;5071662;28;20040;-67
2022/02/12 10:14:15;;;;;;;11.40;5.78;;;;;;;;;;5071882;28;20051;-67
2022/02/12 10:17:00;;;;;;;13.65;6.38;;;;;;;;;;5072764;28;20049;-66
2022/02/12 10:19:33;;;;;;;18.48;9.15;;;;;;;;;;5075992;28;20074;-66
2022/02/12 10:22:13;;;;;;;15.85;6.50;;;;;;;;;;5076094;28;20044;-68
2022/02/12 10:24:50;;;;;;;17.80;5.68;;;;;;;;;;5075710;28;20057;-68
2022/02/12 10:27:18;;;;;;;11.10;5.15;;;;;;;;;;5076227;28;20106;-66
2022/02/12 10:29:47;;;;;;;10.85;4.50;;;;;;;;;;5075633;28;20412;-68
2022/02/12 10:32:16;;;;;;;11.15;4.97;;;;;;;;;;5075748;28;20088;-68
2022/02/12 10:34:46;;;;;;;11.18;4.60;;;;;;;;;;5076007;28;20057;-68
2022/02/12 10:37:15;;;;;;;6.20;3.25;;;;;;;;;;5075997;28;20056;-68
2022/02/12 10:39:56;;;;;;;10.25;3.53;;;;;;;;;;5075834;28;20544;-68
2022/02/12 10:42:24;;;;;;;;;;;;;;;;;;5076157;28;20048;-68
2022/02/12 10:44:52;;;;;;;6.78;2.88;;;;;;;;;;5081923;28;19945;-68
2022/02/12 10:47:19;;;;;;;5.95;2.95;;;;;;;;;;5080492;28;20050;-68
2022/02/12 10:49:49;;;;;;;8.98;3.50;;;;;;;;;;5078389;28;20044;-68
2022/02/12 10:52:17;;;;;;;7.97;3.38;;;;;;;;;;5075898;28;20052;-68
2022/02/12 10:54:45;;;;;;;8.18;3.72;;;;;;;;;;5075644;28;20402;-68
2022/02/12 10:57:13;;;;;;;7.88;3.20;;;;;;;;;;5075511;28;20052;-66
2022/02/12 10:59:42;;;;;;;7.30;3.80;;;;;;;;;;5075614;28;20494;-67
2022/02/12 11:02:11;;;;;;;8.38;3.60;;;;;;;;;;5076014;28;20052;-67
2022/02/12 11:04:41;;;;;;;7.43;3.72;;;;;;;;;;5075593;28;20502;-67
2022/02/12 11:07:13;;;;;;;7.87;4.00;;;;;;;;;;5075332;28;20044;-67
2022/02/12 11:09:43;;;;;;;7.63;3.80;;;;;;;;;;5075444;28;20098;-67
2022/02/12 11:12:11;;;;;;;6.77;4.00;;;;;;;;;;5075585;28;20060;-67
2022/02/12 11:14:39;;;;;;;10.55;4.50;;;;;;;;;;5075455;28;20493;-67
2022/02/12 11:17:09;;;;;;;8.38;4.13;;;;;;;;;;5075616;28;20128;-67
2022/02/12 11:19:37;;;;;;;8.95;3.92;;;;;;;;;;5075702;28;20044;-67
2022/02/12 11:22:09;;;;;;;7.97;3.95;;;;;;;;;;5075833;28;20060;-67
2022/02/12 11:24:39;;;;;;;7.95;4.38;;;;;;;;;;5075890;28;20052;-67
2022/02/12 11:27:20;;;;;;;8.55;4.93;;;;;;;;;;5075440;28;20063;-67
2022/02/12 11:29:47;;;;;;;;;;;;;;;;;;5075509;28;20532;-68
2022/02/12 11:32:16;;;;;;;10.10;4.93;;;;;;;;;;5075839;28;19920;-67
2022/02/12 11:34:45;;;;;;;9.50;4.47;;;;;;;;;;5075477;28;20059;-67
2022/02/12 11:37:13;;;;;;;10.23;4.60;;;;;;;;;;5075178;28;20049;-67
2022/02/12 11:39:42;;;;;;;9.50;4.45;;;;;;;;;;5075005;28;20104;-68
2022/02/12 11:42:13;;;;;;;5.90;3.63;;;;;;;;;;5075042;28;20054;-67
2022/02/12 11:44:40;;;;;;;;;;;;;;;;;;5075499;28;20506;-67
2022/02/12 11:47:08;;;;;;;7.45;3.55;;;;;;;;;;5074313;28;19950;-67
2022/02/12 11:49:37;;;;;;;11.35;4.50;;;;;;;;;;5074155;28;20406;-67
2022/02/12 11:52:07;;;;;;;11.75;4.50;;;;;;;;;;5074311;28;20049;-67
2022/02/12 11:54:56;;;;;;;12.38;4.88;;;;;;;;;;5074447;28;20057;-67
2022/02/12 11:57:45;;;;;;;13.60;5.00;;;;;;;;;;5074190;28;20489;-67
2022/02/12 12:00:39;;;;;;;10.15;3.55;;;;;;;;;;5074801;28;20114;-67
2022/02/12 12:03:10;;;;;;;5.82;3.22;;;;;;;;;;5074578;28;20052;-67
2022/02/12 12:05:38;;;;;;;8.35;3.70;;;;;;;;;;5074425;28;20052;-68
2022/02/12 12:08:15;;;;;;;8.35;3.90;;;;;;;;;;5073914;28;20055;-67
2022/02/12 12:11:13;;;;;;;10.43;4.18;;;;;;;;;;5074082;28;20052;-68
2022/02/12 12:13:44;;;;;;;11.18;5.28;;;;;;;;;;5074788;28;20059;-68
2022/02/12 12:16:23;;;;;;;8.02;4.18;;;;;;;;;;5074822;28;20416;-67
2022/02/12 12:18:51;;;;;;;7.15;4.30;;;;;;;;;;5074231;28;20498;-68
2022/02/12 12:21:19;;;;;;;8.38;3.90;;;;;;;;;;5074566;28;20052;-68
2022/02/12 12:23:55;;;;;;;9.20;4.65;;;;;;;;;;5074210;28;20121;-68
2022/02/12 12:26:35;;;;;;;8.57;4.20;;;;;;;;;;5074200;28;20088;-68
2022/02/12 12:32:01;;;;;;;9.95;4.53;;;;;;;;;;5074392;28;20051;-67
2022/02/12 12:34:28;;;;;;;9.95;4.82;;;;;;;;;;5073762;28;20105;-68
2022/02/12 12:36:57;;;;;;;9.00;4.93;;;;;;;;;;5073932;28;20084;-67
2022/02/12 12:39:32;;;;;;;7.88;4.40;;;;;;;;;;5074094;28;20098;-67
2022/02/12 12:42:01;;;;;;;10.85;4.72;;;;;;;;;;5073715;28;20102;-69
2022/02/12 12:44:29;;;;;;;9.55;4.55;;;;;;;;;;5073701;28;20048;-69
2022/02/12 12:46:57;;;;;;;6.85;4.32;;;;;;;;;;5073604;28;20084;-68
2022/02/12 12:49:29;;;;;;;10.20;4.55;;;;;;;;;;5086697;22;20040;-67
2022/02/12 12:51:57;;;;;;;15.18;6.88;;;;;;;;;;5093870;28;20484;-72
2022/02/12 12:54:29;;;;;;;9.13;4.63;;;;;;;;;;5094184;28;20056;-68
2022/02/12 12:56:57;;;;;;;13.27;6.82;;;;;;;;;;5093190;28;20043;-69
2022/02/12 12:59:26;;;;;;;11.05;5.50;;;;;;;;;;5093656;28;20155;-69
2022/02/12 13:02:00;;;;;;;11.73;6.05;;;;;;;;;;5093719;28;20053;-69
2022/02/12 13:04:28;;;;;;;9.32;5.20;;;;;;;;;;5093615;28;20054;-69
2022/02/12 13:06:57;;;;;;;9.48;5.00;;;;;;;;;;5093342;28;20063;-69
2022/02/12 13:09:24;;;;;;;9.93;4.70;;;;;;;;;;5093146;28;20127;-68
2022/02/12 13:11:51;;;;;;;11.43;6.22;;;;;;;;;;5093247;28;20044;-69
2022/02/12 13:14:18;;;;;;;12.23;6.05;;;;;;;;;;5093355;28;20090;-70
2022/02/12 13:16:49;;;;;;;10.73;5.07;;;;;;;;;;5093139;28;20052;-69
2022/02/12 13:19:17;;;;;;;;;;;;;;;;;;5094508;28;20059;-69
2022/02/12 13:21:48;;;;;;;12.80;7.28;;;;;;;;;;5093894;28;19926;-70
2022/02/12 13:24:16;;;;;;;8.65;4.65;;;;;;;;;;5092907;28;20135;-69
2022/02/12 13:26:44;;;;;;;11.27;5.38;;;;;;;;;;5092812;28;20425;-69
2022/02/12 13:29:21;;;;;;;12.52;5.97;;;;;;;;;;5092719;28;20375;-69
2022/02/12 13:31:51;;;;;;;12.27;5.82;;;;;;;;;;5093026;28;20527;-69
2022/02/12 13:34:19;;;;;;;9.97;5.17;;;;;;;;;;5092678;28;20054;-70
2022/02/12 13:36:48;;;;;;;15.65;6.22;;;;;;;;;;5092460;28;20307;-69
2022/02/12 13:39:19;;;;;;;12.15;5.90;;;;;;;;;;5092612;28;20088;-70
2022/02/12 13:41:46;;;;;;;12.20;6.15;;;;;;;;;;5093631;28;20052;-71
2022/02/12 13:44:14;;;;;;;10.27;5.93;;;;;;;;;;5093756;28;20051;-70
2022/02/12 13:46:43;;;;;;;12.35;6.57;;;;;;;;;;5092228;28;20051;-71
2022/02/12 13:49:20;;;;;;;11.98;6.25;;;;;;;;;;5092491;28;20098;-70
2022/02/12 13:51:56;;;;;;;12.80;6.68;;;;;;;;;;5092709;28;20093;-69
2022/02/12 13:54:24;;;;;;;10.65;5.10;;;;;;;;;;5093692;28;20504;-68
2022/02/12 13:56:52;;;;;;;10.57;5.47;;;;;;;;;;5092070;28;20083;-68
2022/02/12 13:59:21;;;;;;;10.70;6.20;;;;;;;;;;5092337;28;20494;-68
2022/02/12 14:01:49;;;;;;;11.38;5.53;;;;;;;;;;5092319;28;20054;-68
2022/02/12 14:04:18;;;;;;;10.25;5.30;;;;;;;;;;5093252;28;20048;-69
2022/02/12 14:06:45;;;;;;;10.13;5.07;;;;;;;;;;5091702;28;20086;-70
2022/02/12 14:09:14;;;;;;;11.82;5.72;;;;;;;;;;5092032;28;20050;-69
2022/02/12 14:11:43;;;;;;;10.68;4.93;;;;;;;;;;5092738;28;20480;-69
2022/02/12 14:14:10;;;;;;;8.48;4.40;;;;;;;;;;5092212;28;20052;-69
2022/02/12 14:16:38;;;;;;;10.70;4.65;;;;;;;;;;5091846;28;20048;-69
2022/02/12 14:19:05;;;;;;;8.35;4.20;;;;;;;;;;5092000;28;20044;-70
2022/02/12 14:21:34;;;;;;;6.45;3.67;;;;;;;;;;5092420;28;20046;-69
2022/02/12 14:24:02;;;;;;;9.30;4.00;;;;;;;;;;5092125;28;20060;-70
2022/02/12 14:26:29;;;;;;;9.00;4.57;;;;;;;;;;5091883;28;20059;-68
2022/02/12 14:28:56;;;;;;;8.32;4.43;;;;;;;;;;5092723;28;20469;-69
2022/02/12 14:31:23;;;;;;;10.25;3.90;;;;;;;;;;5092190;28;20048;-68
2022/02/12 14:33:51;;;;;;;9.68;4.30;;;;;;;;;;5092267;28;20044;-69
2022/02/12 14:36:18;;;;;;;11.20;4.70;;;;;;;;;;5091850;28;20079;-70
2022/02/12 14:38:47;;;;;;;7.78;4.40;;;;;;;;;;5091786;28;20085;-69
2022/02/12 14:41:16;;;;;;;11.27;5.10;;;;;;;;;;5092191;28;20052;-69
2022/02/12 14:43:44;;;;;;;10.35;4.70;;;;;;;;;;5092361;28;20052;-68
2022/02/12 14:46:11;;;;;;;10.70;5.70;;;;;;;;;;5091641;28;20062;-69
2022/02/12 14:48:38;;;;;;;8.82;4.72;;;;;;;;;;5091959;28;20048;-70
2022/02/12 14:51:06;;;;;;;9.23;4.60;;;;;;;;;;5091578;28;20074;-69
2022/02/12 14:53:33;;;;;;;8.57;3.75;;;;;;;;;;5092489;28;20459;-69